createdAt,value
2023-02-09T00:00:13.279Z,87.28
2023-02-09T00:01:13.139Z,87.56
2023-02-09T00:02:13.200Z,87.66
2023-02-09T00:03:13.203Z,87.85
2023-02-09T00:04:13.167Z,87.18
2023-02-09T00:05:13.133Z,87.85
2023-02-09T00:06:13.130Z,87.56
2023-02-09T00:07:13.131Z,87.70
2023-02-09T00:08:13.127Z,87.85
2023-02-09T00:09:13.127Z,87.56
2023-02-09T00:10:13.126Z,87.37
2023-02-09T00:11:13.128Z,87.47
2023-02-09T00:12:13.126Z,87.28
2023-02-09T00:13:13.132Z,87.47
2023-02-09T00:14:13.131Z,87.47
2023-02-09T00:15:13.120Z,87.37
2023-02-09T00:16:13.164Z,87.37
2023-02-09T00:17:13.124Z,88.04
2023-02-09T00:18:13.125Z,87.37
2023-02-09T00:19:13.117Z,87.28
2023-02-09T00:20:13.144Z,87.56
2023-02-09T00:21:13.125Z,87.09
2023-02-09T00:22:13.112Z,87.56
2023-02-09T00:23:13.116Z,87.47
2023-02-09T00:24:13.121Z,87.56
2023-02-09T00:25:13.118Z,87.23
2023-02-09T00:26:13.108Z,87.56
2023-02-09T00:27:13.114Z,87.42
2023-02-09T00:28:13.153Z,87.13
2023-02-09T00:29:13.118Z,87.13
2023-02-09T00:30:13.110Z,87.32
2023-02-09T00:31:13.155Z,87.42
2023-02-09T00:32:13.162Z,87.51
2023-02-09T00:33:13.103Z,87.51
2023-02-09T00:34:13.108Z,87.51
2023-02-09T00:35:13.095Z,87.32
2023-02-09T00:36:13.140Z,87.13
2023-02-09T00:37:13.095Z,87.13
2023-02-09T00:38:13.099Z,87.04
2023-02-09T00:39:13.088Z,87.04
2023-02-09T00:40:13.098Z,87.32
2023-02-09T00:41:13.086Z,87.18
2023-02-09T00:42:13.094Z,87.37
2023-02-09T00:43:13.091Z,87.37
2023-02-09T00:44:13.115Z,87.37
2023-02-09T00:45:13.090Z,87.28
2023-02-09T00:46:13.147Z,87.28
2023-02-09T00:47:13.092Z,87.18
2023-02-09T00:48:13.087Z,87.18
2023-02-09T00:49:13.093Z,87.28
2023-02-09T00:50:13.078Z,86.90
2023-02-09T00:51:13.084Z,86.80
2023-02-09T00:52:13.101Z,87.28
2023-02-09T00:53:13.079Z,86.80
2023-02-09T00:54:13.078Z,86.71
2023-02-09T00:55:13.074Z,86.90
2023-02-09T00:56:13.077Z,87.09
2023-02-09T00:57:13.074Z,87.18
2023-02-09T00:58:13.071Z,87.47
2023-02-09T00:59:13.066Z,87.28
2023-02-09T01:00:13.061Z,87.09
2023-02-09T01:01:13.120Z,87.37
2023-02-09T01:02:13.067Z,87.37
2023-02-09T01:03:13.083Z,87.47
2023-02-09T01:04:13.244Z,86.62
2023-02-09T01:05:13.058Z,86.62
2023-02-09T01:06:13.079Z,86.62
2023-02-09T01:07:13.061Z,86.62
2023-02-09T01:08:13.076Z,86.62
2023-02-09T01:09:13.049Z,86.43
2023-02-09T01:10:13.060Z,86.62
2023-02-09T01:11:13.053Z,86.90
2023-02-09T01:12:13.064Z,86.90
2023-02-09T01:13:13.042Z,87.37
2023-02-09T01:14:13.047Z,87.18
2023-02-09T01:15:13.053Z,87.56
2023-02-09T01:16:13.062Z,87.37
2023-02-09T01:17:13.040Z,87.47
2023-02-09T01:18:13.037Z,86.99
2023-02-09T01:19:13.041Z,86.80
2023-02-09T01:20:13.041Z,86.71
2023-02-09T01:21:13.039Z,86.80
2023-02-09T01:22:13.032Z,86.99
2023-02-09T01:23:13.028Z,86.62
2023-02-09T01:24:13.060Z,86.80
2023-02-09T01:25:13.031Z,86.62
2023-02-09T01:26:13.034Z,86.80
2023-02-09T01:27:13.026Z,86.80
2023-02-09T01:28:13.068Z,86.62
2023-02-09T01:29:13.035Z,86.62
2023-02-09T01:30:13.038Z,86.62
2023-02-09T01:31:13.202Z,86.90
2023-02-09T01:32:13.090Z,86.43
2023-02-09T01:33:13.023Z,86.80
2023-02-09T01:34:13.022Z,86.71
2023-02-09T01:35:13.034Z,86.71
2023-02-09T01:36:13.022Z,86.52
2023-02-09T01:37:13.019Z,86.80
2023-02-09T01:38:13.010Z,86.90
2023-02-09T01:39:13.019Z,86.90
2023-02-09T01:40:13.045Z,86.62
2023-02-09T01:41:13.013Z,86.71
2023-02-09T01:42:13.006Z,86.90
2023-02-09T01:43:13.011Z,86.43
2023-02-09T01:44:13.057Z,86.52
2023-02-09T01:45:13.013Z,86.33
2023-02-09T01:46:13.077Z,86.52
2023-02-09T01:47:13.008Z,86.43
2023-02-09T01:48:13.007Z,86.90
2023-02-09T01:49:13.009Z,86.62
2023-02-09T01:50:12.996Z,86.90
2023-02-09T01:51:12.996Z,86.80
2023-02-09T01:52:13.007Z,86.62
2023-02-09T01:53:13.001Z,86.71
2023-02-09T01:54:12.991Z,86.24
2023-02-09T01:55:13.000Z,86.33
2023-02-09T01:56:13.015Z,86.43
2023-02-09T01:57:12.988Z,86.15
2023-02-09T01:58:12.987Z,86.33
2023-02-09T01:59:12.996Z,86.52
2023-02-09T02:00:12.987Z,86.43
2023-02-09T02:01:13.066Z,86.90
2023-02-09T02:02:13.053Z,86.99
2023-02-09T02:03:12.989Z,86.99
2023-02-09T02:04:12.994Z,86.90
2023-02-09T02:05:12.978Z,86.99
2023-02-09T02:06:12.985Z,86.43
2023-02-09T02:07:12.980Z,86.52
2023-02-09T02:08:13.001Z,86.24
2023-02-09T02:09:12.987Z,86.43
2023-02-09T02:10:12.979Z,86.43
2023-02-09T02:11:12.978Z,86.52
2023-02-09T02:12:12.998Z,86.24
2023-02-09T02:13:12.971Z,86.15
2023-02-09T02:14:12.967Z,86.33
2023-02-09T02:15:12.969Z,86.24
2023-02-09T02:16:13.031Z,86.33
2023-02-09T02:17:12.957Z,86.24
2023-02-09T02:18:12.957Z,86.43
2023-02-09T02:19:12.953Z,86.33
2023-02-09T02:20:12.965Z,86.33
2023-02-09T02:21:12.957Z,86.62
2023-02-09T02:22:12.952Z,86.24
2023-02-09T02:23:12.947Z,86.15
2023-02-09T02:24:12.945Z,86.43
2023-02-09T02:25:12.956Z,85.96
2023-02-09T02:26:12.956Z,86.05
2023-02-09T02:27:12.950Z,86.33
2023-02-09T02:28:13.011Z,86.15
2023-02-09T02:29:12.939Z,86.05
2023-02-09T02:30:12.938Z,86.24
2023-02-09T02:31:13.168Z,86.05
2023-02-09T02:32:12.948Z,85.86
2023-02-09T02:33:12.940Z,85.96
2023-02-09T02:34:12.941Z,86.05
2023-02-09T02:35:12.941Z,86.33
2023-02-09T02:36:12.936Z,86.24
2023-02-09T02:37:12.933Z,86.15
2023-02-09T02:38:12.925Z,86.43
2023-02-09T02:39:12.931Z,86.43
2023-02-09T02:40:12.923Z,86.43
2023-02-09T02:41:12.919Z,86.43
2023-02-09T02:42:12.925Z,86.43
2023-02-09T02:43:12.925Z,85.96
2023-02-09T02:44:12.941Z,86.15
2023-02-09T02:45:12.915Z,86.33
2023-02-09T02:46:13.001Z,86.33
2023-02-09T02:47:12.916Z,86.43
2023-02-09T02:48:12.922Z,86.24
2023-02-09T02:49:15.140Z,86.24
2023-02-09T02:50:12.927Z,86.29
2023-02-09T02:51:12.921Z,86.29
2023-02-09T02:52:12.924Z,85.49
2023-02-09T02:53:12.917Z,85.77
2023-02-09T02:54:12.917Z,85.68
2023-02-09T02:55:12.909Z,85.96
2023-02-09T02:56:12.914Z,85.86
2023-02-09T02:57:12.911Z,86.15
2023-02-09T02:58:12.912Z,85.30
2023-02-09T02:59:12.903Z,85.96
2023-02-09T03:00:12.923Z,85.58
2023-02-09T03:01:12.927Z,85.96
2023-02-09T03:02:12.906Z,85.86
2023-02-09T03:03:12.914Z,85.96
2023-02-09T03:04:12.906Z,85.68
2023-02-09T03:05:12.941Z,85.68
2023-02-09T03:06:12.894Z,85.86
2023-02-09T03:07:12.901Z,85.96
2023-02-09T03:08:12.897Z,86.15
2023-02-09T03:09:12.896Z,85.30
2023-02-09T03:10:12.896Z,85.58
2023-02-09T03:11:12.888Z,85.58
2023-02-09T03:12:12.885Z,85.68
2023-02-09T03:13:12.897Z,85.68
2023-02-09T03:14:12.892Z,85.49
2023-02-09T03:15:12.893Z,85.39
2023-02-09T03:16:13.008Z,85.68
2023-02-09T03:17:12.886Z,85.58
2023-02-09T03:18:12.881Z,85.96
2023-02-09T03:19:12.881Z,85.68
2023-02-09T03:20:12.882Z,86.05
2023-02-09T03:21:12.879Z,85.96
2023-02-09T03:22:12.884Z,85.77
2023-02-09T03:23:12.868Z,85.58
2023-02-09T03:24:12.874Z,85.49
2023-02-09T03:25:12.866Z,85.86
2023-02-09T03:26:12.885Z,86.05
2023-02-09T03:27:12.867Z,85.39
2023-02-09T03:28:12.942Z,85.49
2023-02-09T03:29:12.860Z,85.58
2023-02-09T03:30:12.878Z,85.96
2023-02-09T03:31:13.030Z,85.96
2023-02-09T03:32:12.883Z,85.96
2023-02-09T03:33:12.854Z,85.58
2023-02-09T03:34:12.859Z,85.58
2023-02-09T03:35:12.858Z,85.96
2023-02-09T03:36:12.852Z,85.68
2023-02-09T03:37:12.854Z,85.68
2023-02-09T03:38:12.856Z,85.96
2023-02-09T03:39:12.845Z,85.68
2023-02-09T03:40:12.853Z,85.68
2023-02-09T03:41:12.841Z,85.39
2023-02-09T03:42:12.853Z,85.39
2023-02-09T03:43:12.836Z,85.30
2023-02-09T03:44:12.847Z,85.49
2023-02-09T03:45:12.847Z,85.30
2023-02-09T03:46:12.917Z,85.39
2023-02-09T03:47:12.844Z,85.58
2023-02-09T03:48:12.860Z,85.43
2023-02-09T03:49:12.831Z,85.53
2023-02-09T03:50:12.841Z,85.53
2023-02-09T03:51:12.854Z,85.53
2023-02-09T03:52:12.852Z,85.72
2023-02-09T03:53:12.838Z,85.72
2023-02-09T03:54:12.866Z,85.62
2023-02-09T03:55:12.827Z,85.81
2023-02-09T03:56:12.824Z,85.62
2023-02-09T03:57:12.817Z,85.24
2023-02-09T03:58:12.814Z,85.53
2023-02-09T03:59:12.817Z,85.34
2023-02-09T04:00:12.815Z,85.15
2023-02-09T04:01:12.903Z,84.77
2023-02-09T04:02:12.989Z,85.24
2023-02-09T04:03:12.815Z,85.05
2023-02-09T04:04:12.825Z,84.68
2023-02-09T04:05:12.821Z,84.77
2023-02-09T04:06:12.807Z,85.15
2023-02-09T04:07:12.806Z,84.68
2023-02-09T04:08:12.799Z,84.68
2023-02-09T04:09:12.795Z,84.30
2023-02-09T04:10:12.809Z,84.30
2023-02-09T04:11:12.798Z,84.58
2023-02-09T04:12:12.798Z,84.49
2023-02-09T04:13:12.796Z,84.58
2023-02-09T04:14:12.796Z,84.39
2023-02-09T04:15:12.801Z,84.49
2023-02-09T04:16:12.852Z,84.49
2023-02-09T04:17:12.786Z,84.39
2023-02-09T04:18:12.786Z,84.49
2023-02-09T04:19:12.788Z,84.49
2023-02-09T04:20:12.816Z,84.20
2023-02-09T04:21:12.783Z,84.39
2023-02-09T04:22:12.785Z,84.49
2023-02-09T04:23:12.784Z,84.20
2023-02-09T04:24:12.783Z,84.20
2023-02-09T04:25:12.775Z,84.20
2023-02-09T04:26:12.772Z,84.30
2023-02-09T04:27:12.778Z,84.01
2023-02-09T04:28:12.816Z,83.73
2023-02-09T04:29:12.770Z,83.73
2023-02-09T04:30:12.766Z,83.73
2023-02-09T04:31:12.947Z,84.20
2023-02-09T04:32:12.827Z,84.20
2023-02-09T04:33:12.772Z,84.30
2023-02-09T04:34:12.762Z,84.30
2023-02-09T04:35:12.776Z,83.92
2023-02-09T04:36:12.788Z,84.01
2023-02-09T04:37:12.762Z,84.01
2023-02-09T04:38:12.761Z,83.83
2023-02-09T04:39:12.767Z,83.92
2023-02-09T04:40:12.822Z,83.59
2023-02-09T04:41:12.762Z,83.78
2023-02-09T04:42:12.762Z,83.69
2023-02-09T04:43:12.760Z,83.69
2023-02-09T04:44:12.768Z,83.69
2023-02-09T04:45:12.756Z,83.69
2023-02-09T04:46:12.859Z,83.69
2023-02-09T04:47:12.754Z,83.50
2023-02-09T04:48:12.744Z,84.07
2023-02-09T04:49:12.754Z,83.69
2023-02-09T04:50:12.752Z,83.69
2023-02-09T04:51:12.748Z,84.07
2023-02-09T04:52:12.767Z,83.88
2023-02-09T04:53:12.745Z,84.26
2023-02-09T04:54:12.754Z,84.26
2023-02-09T04:55:12.744Z,84.35
2023-02-09T04:56:14.937Z,84.54
2023-02-09T04:57:12.738Z,84.35
2023-02-09T04:58:12.730Z,84.64
2023-02-09T04:59:12.736Z,84.26
2023-02-09T05:00:12.735Z,84.26
2023-02-09T05:01:12.749Z,84.64
2023-02-09T05:02:12.722Z,84.64
2023-02-09T05:03:12.756Z,84.73
2023-02-09T05:04:12.725Z,84.54
2023-02-09T05:05:12.732Z,84.64
2023-02-09T05:06:12.722Z,84.82
2023-02-09T05:07:12.723Z,84.82
2023-02-09T05:08:12.741Z,84.92
2023-02-09T05:09:12.719Z,84.64
2023-02-09T05:10:12.719Z,84.82
2023-02-09T05:11:12.720Z,84.54
2023-02-09T05:12:12.712Z,84.64
2023-02-09T05:13:12.713Z,84.45
2023-02-09T05:14:12.716Z,84.54
2023-02-09T05:15:12.710Z,84.35
2023-02-09T05:16:12.740Z,84.35
2023-02-09T05:17:12.699Z,84.64
2023-02-09T05:18:12.705Z,84.54
2023-02-09T05:19:12.697Z,84.64
2023-02-09T05:20:12.702Z,84.35
2023-02-09T05:21:12.691Z,84.54
2023-02-09T05:22:12.699Z,85.20
2023-02-09T05:23:12.696Z,84.92
2023-02-09T05:24:12.716Z,84.73
2023-02-09T05:25:12.685Z,84.45
2023-02-09T05:26:12.706Z,84.35
2023-02-09T05:27:12.696Z,85.11
2023-02-09T05:28:12.813Z,84.92
2023-02-09T05:29:12.679Z,85.11
2023-02-09T05:30:12.681Z,84.45
2023-02-09T05:31:12.767Z,84.64
2023-02-09T05:32:12.718Z,84.54
2023-02-09T05:33:12.681Z,84.45
2023-02-09T05:34:12.679Z,84.45
2023-02-09T05:35:12.673Z,84.64
2023-02-09T05:36:12.695Z,84.26
2023-02-09T05:37:12.670Z,84.54
2023-02-09T05:38:12.665Z,84.82
2023-02-09T05:39:12.664Z,84.64
2023-02-09T05:40:13.902Z,84.73
2023-02-09T05:41:12.675Z,84.45
2023-02-09T05:42:12.663Z,84.73
2023-02-09T05:43:12.663Z,84.73
2023-02-09T05:44:12.682Z,84.73
2023-02-09T05:45:12.679Z,84.73
2023-02-09T05:46:12.707Z,84.68
2023-02-09T05:47:12.652Z,84.77
2023-02-09T05:48:12.652Z,84.68
2023-02-09T05:49:12.648Z,84.49
2023-02-09T05:50:12.654Z,84.20
2023-02-09T05:51:12.652Z,84.68
2023-02-09T05:52:12.650Z,83.92
2023-02-09T05:53:14.425Z,84.20
2023-02-09T05:54:12.640Z,84.20
2023-02-09T05:55:12.637Z,84.01
2023-02-09T05:56:12.682Z,84.11
2023-02-09T05:57:12.656Z,83.64
2023-02-09T05:58:12.631Z,83.83
2023-02-09T05:59:12.639Z,83.83
2023-02-09T06:00:12.663Z,83.73
2023-02-09T06:01:12.636Z,83.73
2023-02-09T06:02:12.662Z,83.64
2023-02-09T06:03:12.689Z,83.64
2023-02-09T06:04:12.620Z,83.54
2023-02-09T06:05:12.620Z,83.83
2023-02-09T06:06:12.627Z,83.92
2023-02-09T06:07:12.624Z,83.45
2023-02-09T06:08:12.628Z,83.54
2023-02-09T06:09:12.621Z,83.54
2023-02-09T06:10:12.618Z,83.73
2023-02-09T06:11:12.618Z,83.92
2023-02-09T06:12:12.628Z,83.17
2023-02-09T06:13:12.609Z,83.45
2023-02-09T06:14:12.611Z,83.26
2023-02-09T06:15:12.612Z,83.26
2023-02-09T06:16:12.622Z,83.36
2023-02-09T06:17:12.607Z,83.17
2023-02-09T06:18:12.598Z,82.84
2023-02-09T06:19:12.621Z,83.40
2023-02-09T06:20:12.596Z,83.12
2023-02-09T06:21:12.603Z,83.03
2023-02-09T06:22:12.593Z,82.84
2023-02-09T06:23:12.600Z,83.22
2023-02-09T06:24:12.608Z,83.03
2023-02-09T06:25:12.595Z,83.31
2023-02-09T06:26:12.593Z,83.31
2023-02-09T06:27:12.585Z,83.50
2023-02-09T06:28:12.650Z,83.40
2023-02-09T06:29:12.601Z,83.59
2023-02-09T06:30:12.590Z,83.88
2023-02-09T06:31:12.739Z,83.40
2023-02-09T06:32:12.734Z,83.59
2023-02-09T06:33:12.585Z,83.40
2023-02-09T06:34:12.585Z,83.78
2023-02-09T06:35:12.574Z,83.78
2023-02-09T06:36:12.586Z,83.59
2023-02-09T06:37:12.579Z,83.50
2023-02-09T06:38:12.581Z,83.88
2023-02-09T06:39:12.577Z,83.50
2023-02-09T06:40:12.575Z,83.78
2023-02-09T06:41:12.572Z,83.50
2023-02-09T06:42:12.570Z,83.88
2023-02-09T06:43:12.565Z,83.59
2023-02-09T06:44:12.588Z,83.69
2023-02-09T06:45:12.578Z,83.78
2023-02-09T06:46:12.608Z,83.78
2023-02-09T06:47:12.563Z,83.78
2023-02-09T06:48:12.576Z,83.69
2023-02-09T06:49:12.557Z,83.97
2023-02-09T06:50:12.564Z,83.78
2023-02-09T06:51:12.565Z,83.78
2023-02-09T06:52:12.557Z,83.88
2023-02-09T06:53:12.565Z,84.07
2023-02-09T06:54:12.554Z,84.54
2023-02-09T06:55:12.553Z,84.54
2023-02-09T06:56:12.552Z,84.54
2023-02-09T06:57:12.544Z,84.26
2023-02-09T06:58:12.539Z,84.07
2023-02-09T06:59:12.539Z,83.78
2023-02-09T07:00:12.574Z,83.97
2023-02-09T07:01:12.642Z,84.07
2023-02-09T07:02:12.544Z,84.16
2023-02-09T07:03:12.540Z,84.16
2023-02-09T07:04:12.538Z,83.78
2023-02-09T07:05:12.541Z,83.50
2023-02-09T07:06:12.543Z,83.59
2023-02-09T07:07:12.534Z,83.40
2023-02-09T07:08:12.524Z,83.97
2023-02-09T07:09:12.538Z,83.97
2023-02-09T07:10:12.528Z,84.45
2023-02-09T07:11:12.532Z,84.64
2023-02-09T07:12:12.522Z,84.39
2023-02-09T07:13:12.528Z,84.39
2023-02-09T07:14:12.525Z,84.39
2023-02-09T07:15:12.516Z,84.39
2023-02-09T07:16:12.602Z,84.44
2023-02-09T07:17:12.515Z,84.39
2023-02-09T07:18:12.515Z,84.10
2023-02-09T07:19:12.510Z,83.86
2023-02-09T07:20:12.522Z,83.71
2023-02-09T07:21:12.506Z,83.81
2023-02-09T07:22:12.509Z,83.37
2023-02-09T07:23:12.531Z,83.09
2023-02-09T07:24:12.511Z,82.75
2023-02-09T07:25:12.499Z,82.28
2023-02-09T07:26:12.504Z,81.85
2023-02-09T07:27:12.502Z,81.70
2023-02-09T07:28:12.601Z,80.56
2023-02-09T07:29:13.028Z,79.74
2023-02-09T07:30:12.494Z,79.74
2023-02-09T07:31:12.715Z,79.12
2023-02-09T07:32:12.533Z,77.98
2023-02-09T07:33:12.491Z,77.51
2023-02-09T07:34:12.498Z,76.37
2023-02-09T07:35:12.507Z,75.32
2023-02-09T07:36:12.492Z,75.13
2023-02-09T07:37:12.487Z,73.71
2023-02-09T07:38:12.497Z,73.23
2023-02-09T07:39:12.486Z,72.47
2023-02-09T07:40:12.490Z,72.28
2023-02-09T07:41:12.492Z,71.37
2023-02-09T07:42:12.496Z,70.42
2023-02-09T07:43:12.492Z,70.13
2023-02-09T07:44:12.504Z,70.45
2023-02-09T07:45:12.491Z,69.79
2023-02-09T07:46:12.522Z,68.93
2023-02-09T07:47:12.485Z,68.36
2023-02-09T07:48:12.509Z,67.92
2023-02-09T07:49:12.500Z,67.44
2023-02-09T07:50:12.498Z,66.68
2023-02-09T07:51:12.497Z,65.83
2023-02-09T07:52:12.489Z,65.35
2023-02-09T07:53:12.489Z,65.25
2023-02-09T07:54:12.496Z,65.19
2023-02-09T07:55:12.499Z,64.62
2023-02-09T07:56:12.497Z,64.43
2023-02-09T07:57:12.499Z,63.96
2023-02-09T07:58:12.501Z,63.89
2023-02-09T07:59:12.496Z,63.32
2023-02-09T08:00:12.497Z,62.18
2023-02-09T08:01:12.502Z,61.73
2023-02-09T08:02:12.513Z,61.25
2023-02-09T08:03:12.511Z,61.07
2023-02-09T08:04:12.539Z,60.59
2023-02-09T08:05:12.541Z,59.35
2023-02-09T08:06:12.514Z,58.50
2023-02-09T08:07:12.517Z,57.73
2023-02-09T08:08:12.514Z,57.64
2023-02-09T08:09:12.517Z,56.94
2023-02-09T08:10:12.528Z,56.92
2023-02-09T08:11:12.539Z,57.10
2023-02-09T08:12:12.562Z,57.48
2023-02-09T08:13:12.563Z,57.87
2023-02-09T08:14:12.529Z,57.87
2023-02-09T08:15:12.537Z,57.89
2023-02-09T08:16:12.609Z,56.65
2023-02-09T08:17:12.536Z,56.65
2023-02-09T08:18:13.151Z,56.65
2023-02-09T08:19:12.542Z,56.78
2023-02-09T08:20:12.575Z,56.87
2023-02-09T08:21:12.556Z,56.40
2023-02-09T08:22:12.569Z,56.30
2023-02-09T08:23:12.564Z,54.97
2023-02-09T08:24:12.562Z,54.88
2023-02-09T08:25:12.569Z,55.83
2023-02-09T08:26:12.572Z,55.35
2023-02-09T08:27:12.573Z,55.26
2023-02-09T08:28:12.643Z,55.22
2023-02-09T08:29:12.585Z,55.32
2023-02-09T08:30:12.579Z,55.22
2023-02-09T08:31:12.722Z,54.94
2023-02-09T08:32:12.726Z,55.10
2023-02-09T08:33:12.598Z,55.20
2023-02-09T08:34:12.600Z,54.82
2023-02-09T08:35:12.594Z,55.10
2023-02-09T08:36:12.630Z,55.49
2023-02-09T08:37:12.618Z,55.70
2023-02-09T08:38:12.624Z,55.32
2023-02-09T08:39:12.624Z,55.13
2023-02-09T08:40:12.614Z,54.91
2023-02-09T08:41:12.625Z,55.10
2023-02-09T08:42:12.619Z,54.63
2023-02-09T08:43:12.623Z,54.69
2023-02-09T08:44:12.625Z,54.22
2023-02-09T08:45:12.652Z,54.77
2023-02-09T08:46:12.826Z,54.98
2023-02-09T08:47:12.644Z,54.89
2023-02-09T08:48:12.642Z,55.08
2023-02-09T08:49:12.647Z,56.05
2023-02-09T08:50:12.649Z,56.05
2023-02-09T08:51:12.653Z,55.68
2023-02-09T08:52:12.692Z,55.68
2023-02-09T08:53:12.674Z,55.58
2023-02-09T08:54:12.673Z,55.68
2023-02-09T08:55:12.683Z,55.80
2023-02-09T08:56:12.678Z,55.70
2023-02-09T08:57:12.692Z,55.80
2023-02-09T08:58:12.681Z,53.89
2023-02-09T08:59:12.691Z,53.61
2023-02-09T09:00:12.697Z,52.34
2023-02-09T09:01:12.742Z,53.20
2023-02-09T09:02:12.705Z,53.27
2023-02-09T09:03:12.704Z,53.55
2023-02-09T09:04:12.714Z,53.96
2023-02-09T09:05:12.714Z,54.15
2023-02-09T09:06:12.722Z,54.50
2023-02-09T09:07:12.730Z,54.82
2023-02-09T09:08:12.776Z,54.82
2023-02-09T09:09:12.740Z,54.75
2023-02-09T09:10:12.898Z,54.27
2023-02-09T09:11:12.868Z,54.47
2023-02-09T09:12:12.751Z,54.47
2023-02-09T09:13:12.750Z,54.47
2023-02-09T09:14:12.758Z,54.08
2023-02-09T09:15:12.841Z,53.89
2023-02-09T09:16:12.841Z,53.49
2023-02-09T09:17:12.774Z,53.96
2023-02-09T09:18:12.770Z,53.87
2023-02-09T09:19:12.786Z,53.87
2023-02-09T09:20:12.792Z,54.25
2023-02-09T09:21:12.826Z,54.44
2023-02-09T09:22:12.800Z,54.75
2023-02-09T09:23:12.803Z,54.88
2023-02-09T09:24:12.850Z,55.00
2023-02-09T09:25:12.815Z,54.93
2023-02-09T09:26:12.828Z,54.45
2023-02-09T09:27:12.817Z,54.55
2023-02-09T09:28:12.872Z,53.41
2023-02-09T09:29:12.842Z,53.09
2023-02-09T09:30:12.834Z,53.00
2023-02-09T09:31:12.916Z,52.55
2023-02-09T09:32:13.073Z,52.83
2023-02-09T09:33:12.962Z,52.55
2023-02-09T09:34:12.880Z,52.16
2023-02-09T09:35:12.870Z,51.95
2023-02-09T09:36:12.893Z,51.37
2023-02-09T09:37:12.875Z,51.66
2023-02-09T09:38:12.880Z,51.73
2023-02-09T09:39:12.894Z,52.20
2023-02-09T09:40:12.921Z,52.80
2023-02-09T09:41:12.899Z,52.52
2023-02-09T09:42:12.911Z,52.80
2023-02-09T09:43:12.918Z,53.28
2023-02-09T09:44:12.928Z,52.71
2023-02-09T09:45:12.929Z,52.33
2023-02-09T09:46:13.018Z,51.73
2023-02-09T09:47:12.942Z,52.01
2023-02-09T09:48:12.940Z,51.82
2023-02-09T09:49:12.955Z,52.40
2023-02-09T09:50:12.990Z,52.30
2023-02-09T09:51:12.961Z,52.11
2023-02-09T09:52:12.972Z,51.92
2023-02-09T09:53:12.994Z,52.30
2023-02-09T09:54:12.984Z,52.11
2023-02-09T09:55:12.981Z,52.28
2023-02-09T09:56:13.022Z,52.09
2023-02-09T09:57:12.999Z,52.75
2023-02-09T09:58:13.001Z,53.04
2023-02-09T09:59:13.036Z,53.04
2023-02-09T10:00:13.012Z,52.75
2023-02-09T10:01:13.096Z,53.61
2023-02-09T10:02:14.112Z,53.54
2023-02-09T10:03:13.028Z,52.87
2023-02-09T10:04:13.076Z,52.30
2023-02-09T10:05:13.042Z,52.28
2023-02-09T10:06:13.057Z,53.04
2023-02-09T10:07:13.062Z,52.68
2023-02-09T10:08:13.068Z,52.78
2023-02-09T10:09:13.075Z,52.47
2023-02-09T10:10:13.087Z,53.23
2023-02-09T10:11:13.093Z,53.16
2023-02-09T10:12:13.118Z,52.68
2023-02-09T10:13:13.104Z,52.71
2023-02-09T10:14:13.110Z,52.52
2023-02-09T10:15:13.116Z,51.18
2023-02-09T10:16:13.124Z,51.18
2023-02-09T10:17:13.122Z,52.04
2023-02-09T10:18:13.128Z,51.76
2023-02-09T10:19:13.147Z,52.04
2023-02-09T10:20:13.152Z,51.56
2023-02-09T10:21:13.159Z,51.28
2023-02-09T10:22:13.163Z,51.18
2023-02-09T10:23:13.175Z,51.59
2023-02-09T10:24:13.172Z,50.90
2023-02-09T10:25:13.190Z,50.52
2023-02-09T10:26:13.195Z,50.32
2023-02-09T10:27:13.216Z,49.97
2023-02-09T10:28:13.260Z,50.07
2023-02-09T10:29:13.218Z,49.66
2023-02-09T10:30:13.227Z,49.95
2023-02-09T10:31:13.373Z,50.73
2023-02-09T10:32:13.240Z,50.45
2023-02-09T10:33:13.248Z,49.78
2023-02-09T10:34:13.253Z,50.16
2023-02-09T10:35:13.264Z,49.87
2023-02-09T10:36:13.271Z,49.99
2023-02-09T10:37:13.273Z,50.12
2023-02-09T10:38:13.290Z,48.97
2023-02-09T10:39:13.297Z,48.99
2023-02-09T10:40:13.305Z,48.99
2023-02-09T10:41:13.308Z,48.44
2023-02-09T10:42:13.324Z,47.30
2023-02-09T10:43:13.335Z,46.92
2023-02-09T10:44:13.369Z,46.44
2023-02-09T10:45:13.344Z,46.72
2023-02-09T10:46:13.446Z,46.63
2023-02-09T10:47:13.385Z,46.44
2023-02-09T10:48:13.378Z,45.87
2023-02-09T10:49:13.383Z,45.58
2023-02-09T10:50:14.210Z,45.58
2023-02-09T10:51:13.403Z,45.48
2023-02-09T10:52:13.413Z,45.48
2023-02-09T10:53:13.430Z,45.29
2023-02-09T10:54:13.442Z,44.91
2023-02-09T10:55:13.451Z,45.12
2023-02-09T10:56:13.468Z,44.93
2023-02-09T10:57:17.103Z,44.86
2023-02-09T10:58:13.487Z,44.48
2023-02-09T10:59:17.150Z,44.19
2023-02-09T11:00:13.498Z,44.31
2023-02-09T11:01:13.516Z,44.31
2023-02-09T11:02:56.476Z,43.83
2023-02-09T11:03:56.172Z,43.56
2023-02-09T11:29:45.090Z,41.49
2023-02-09T11:30:45.698Z,41.20
2023-02-09T11:31:45.164Z,41.49
2023-02-09T11:32:45.105Z,41.78
2023-02-09T11:33:45.105Z,41.78
2023-02-09T11:34:45.123Z,42.07
2023-02-09T11:35:45.136Z,42.07
2023-02-09T11:36:45.137Z,41.87
2023-02-09T11:37:45.151Z,42.25
2023-02-09T11:38:45.162Z,41.87
2023-02-09T11:39:45.183Z,41.68
2023-02-09T11:40:45.527Z,42.16
2023-02-09T11:41:45.198Z,42.14
2023-02-09T11:42:45.213Z,41.75
2023-02-09T11:43:45.218Z,42.33
2023-02-09T11:44:45.236Z,42.24
2023-02-09T11:45:45.265Z,42.81
2023-02-09T11:46:45.375Z,42.43
2023-02-09T11:47:45.488Z,42.14
2023-02-09T11:48:45.280Z,42.14
2023-02-09T11:49:45.294Z,41.93
2023-02-09T11:50:45.648Z,41.64
2023-02-09T11:51:45.314Z,41.93
2023-02-09T11:52:45.325Z,42.02
2023-02-09T11:53:45.330Z,42.40
2023-02-09T11:54:45.351Z,42.60
2023-02-09T11:55:45.391Z,42.60
2023-02-09T11:56:45.373Z,42.60
2023-02-09T11:57:45.381Z,42.40
2023-02-09T11:58:45.393Z,42.43
2023-02-09T11:59:45.399Z,42.24
2023-02-09T12:00:54.861Z,42.33
2023-02-09T12:01:45.445Z,42.81
2023-02-09T12:02:45.458Z,42.52
2023-02-09T12:32:01.098Z,41.09
2023-02-09T12:33:01.067Z,41.18
2023-02-09T12:34:01.080Z,41.18
2023-02-09T12:35:01.088Z,41.45
2023-02-09T12:36:01.122Z,41.45
2023-02-09T12:37:01.106Z,41.16
2023-02-09T12:38:01.127Z,41.26
2023-02-09T12:39:05.096Z,41.16
2023-02-09T12:40:01.132Z,41.16
2023-02-09T12:41:01.140Z,41.35
2023-02-09T12:42:01.161Z,41.93
2023-02-09T12:43:01.169Z,41.93
2023-02-09T12:44:01.178Z,41.81
2023-02-09T12:45:01.208Z,41.71
2023-02-09T12:46:01.310Z,41.43
2023-02-09T12:47:01.211Z,40.95
2023-02-09T12:48:01.234Z,41.05
2023-02-09T12:49:01.234Z,40.95
2023-02-09T12:50:01.240Z,41.14
2023-02-09T12:51:01.261Z,41.03
2023-02-09T12:52:01.261Z,41.12
2023-02-09T12:53:01.288Z,41.12
2023-02-09T12:54:01.310Z,41.12
2023-02-09T12:55:01.296Z,41.03
2023-02-09T12:56:01.301Z,41.22
2023-02-09T12:57:01.313Z,41.00
2023-02-09T12:58:01.321Z,41.00
2023-02-09T12:59:01.333Z,41.20
2023-02-09T13:00:01.372Z,41.39
2023-02-09T13:01:01.416Z,41.39
2023-02-09T13:02:01.362Z,41.48
2023-02-09T13:03:01.362Z,41.86
2023-02-09T13:04:01.499Z,41.96
2023-02-09T13:05:01.389Z,41.77
2023-02-09T13:06:01.393Z,41.96
2023-02-09T13:07:01.409Z,41.77
2023-02-09T13:08:01.412Z,41.84
2023-02-09T13:09:01.442Z,41.84
2023-02-09T13:10:01.440Z,41.65
2023-02-09T13:11:01.444Z,41.84
2023-02-09T13:12:01.446Z,41.84
2023-02-09T13:13:01.455Z,42.41
2023-02-09T13:14:01.473Z,42.41
2023-02-09T13:15:01.480Z,42.13
2023-02-09T13:16:01.603Z,42.60
2023-02-09T13:17:01.499Z,42.41
2023-02-09T13:18:01.540Z,42.60
2023-02-09T13:19:01.549Z,42.60
2023-02-09T13:20:01.572Z,42.60
2023-02-09T13:21:01.544Z,42.51
2023-02-09T13:22:01.565Z,42.32
2023-02-09T13:23:01.578Z,42.32
2023-02-09T13:24:01.588Z,42.41
2023-02-09T13:25:01.563Z,42.41
2023-02-09T13:26:01.591Z,42.80
2023-02-09T13:27:01.592Z,42.77
2023-02-09T13:28:01.653Z,42.96
2023-02-09T13:29:11.627Z,42.87
2023-02-09T13:30:01.652Z,43.35
2023-02-09T13:31:01.622Z,43.25
2023-02-09T13:32:01.705Z,43.82
2023-02-09T13:33:02.942Z,43.82
2023-02-09T13:34:01.660Z,43.82
2023-02-09T13:35:01.678Z,43.91
2023-02-09T13:36:01.685Z,44.20
2023-02-09T13:37:01.675Z,44.30
2023-02-09T13:38:01.674Z,44.59
2023-02-09T13:39:01.690Z,44.96
2023-02-09T13:40:01.687Z,44.78
2023-02-09T13:41:01.707Z,44.96
2023-02-09T13:42:01.880Z,44.85
2023-02-09T13:43:01.716Z,44.94
2023-02-09T13:44:01.729Z,45.04
2023-02-09T13:45:01.741Z,45.14
2023-02-09T13:46:01.902Z,44.75